Atlantico Due — ORUW — position and weather

sailwx.info

Track history (hours):
 
Tides and Currents Weather Stations Pressure Air Temp Water Temp Dewpoint Dewpoint Depression Visibility Wind Speed Wind Dir Waves Ship Positions

Atlantico Due

Last reported at 2015-Jan-26 20:12 UTC. Time now 2015-Apr-27 22:10 UTC.
Position N 08°35' W 013°60'.
Warning: this ship's position is months out of date.

; draft 6 m.

Type: Dredging. MMSI: 205062000.

Date/timePositionNaut miles runAvg speedWind from/ knotsBaromVisibWave heightAir tempDewpointWater temp
2015-Jan-26 20:12N 08°35' W 013°60'16 9.7
2015-Jan-26 18:32N 08°51' W 013°60'11 9.7
2015-Jan-26 17:24N 09°02' W 013°59'1010.3
2015-Jan-26 16:27N 09°11' W 013°53'9 9.6
2015-Jan-26 15:33N 09°18' W 013°49'10 9.9
2015-Jan-26 14:33N 09°27' W 013°44'4 4.4
2015-Jan-26 13:33N 09°31' W 013°43'0 0.0
2015-Jan-26 12:33N 09°31' W 013°43'0 0.0
2015-Jan-26 11:33N 09°31' W 013°43'0 0.0
2015-Jan-26 10:33N 09°31' W 013°43'0 0.0
2015-Jan-26 09:33N 09°31' W 013°43'0 0.0
2015-Jan-26 08:33N 09°31' W 013°43'0 0.0
2015-Jan-26 07:33N 09°31' W 013°43'0 0.0
2015-Jan-26 06:33N 09°31' W 013°43'0 0.0
2015-Jan-26 05:33N 09°31' W 013°43'0 0.0
2015-Jan-26 04:33N 09°31' W 013°43'0 0.0
2015-Jan-26 03:33N 09°31' W 013°43'0 0.0
2015-Jan-26 02:33N 09°31' W 013°43'0 0.0
2015-Jan-26 01:27N 09°31' W 013°43'0 0.0
2015-Jan-26 00:27N 09°31' W 013°43'0 0.0
2015-Jan-25 23:33N 09°31' W 013°43'0 0.0
2015-Jan-25 22:33N 09°31' W 013°43'0 0.0
2015-Jan-25 21:33N 09°31' W 013°43'0 0.0
2015-Jan-25 20:33N 09°31' W 013°43'0 0.0
2015-Jan-25 19:33N 09°31' W 013°43'0 0.0
2015-Jan-25 18:33N 09°31' W 013°43'0 0.0
2015-Jan-25 17:33N 09°31' W 013°43'0 0.0
2015-Jan-25 16:33N 09°31' W 013°43'0 0.0
2015-Jan-25 15:33N 09°31' W 013°43'0 0.0
2015-Jan-25 14:33N 09°31' W 013°43'0 0.0
2015-Jan-25 13:33N 09°31' W 013°43'0 0.0
2015-Jan-25 12:33N 09°31' W 013°43'0 0.0
2015-Jan-25 11:33N 09°31' W 013°43'0 0.0
2015-Jan-25 10:31N 09°31' W 013°43'0 0.0
2015-Jan-25 09:31N 09°31' W 013°43'0 0.0
2015-Jan-25 08:31N 09°31' W 013°43'0 0.0
2015-Jan-25 07:31N 09°31' W 013°43'0 0.0
2015-Jan-25 06:31N 09°31' W 013°43'0 0.0
2015-Jan-25 05:31N 09°31' W 013°43'0 0.0
2015-Jan-25 04:31N 09°31' W 013°43'0 0.0
2015-Jan-25 03:31N 09°31' W 013°43'0 0.0
2015-Jan-25 02:31N 09°31' W 013°43'0 0.0
2015-Jan-25 01:31N 09°31' W 013°43'0 0.0
2015-Jan-25 00:31N 09°31' W 013°43'0 0.0
2015-Jan-24 23:31N 09°31' W 013°43'0 0.0
2015-Jan-24 22:31N 09°31' W 013°43'0 0.0
2015-Jan-24 21:31N 09°31' W 013°43'0 0.0
2015-Jan-24 20:31N 09°31' W 013°43'0 0.0
2015-Jan-24 19:31N 09°31' W 013°43'0 0.0
2015-Jan-24 18:31N 09°31' W 013°43'0 0.0
2015-Jan-24 17:31N 09°31' W 013°43'0 0.0
2015-Jan-24 16:22N 09°31' W 013°43'0 0.0
2015-Jan-24 15:25N 09°31' W 013°43'1 1.7
2015-Jan-24 14:33N 09°29' W 013°44'1 1.0
2015-Jan-24 13:26N 09°28' W 013°43'0 0.0
2015-Jan-24 12:23N 09°28' W 013°43'0 0.4
2015-Jan-24 11:34N 09°29' W 013°43'3 2.8
2015-Jan-24 10:34N 09°31' W 013°43'2 2.3
2015-Jan-24 09:33N 09°29' W 013°44'2 1.6
2015-Jan-24 08:33N 09°28' W 013°43'3 2.7
2015-Jan-24 07:34N 09°30' W 013°44'2 2.5
2015-Jan-24 06:33N 09°28' W 013°43'3 2.8
2015-Jan-24 05:33N 09°31' W 013°43'1 1.2
2015-Jan-24 04:33N 09°30' W 013°44'1 1.5
2015-Jan-24 03:33N 09°28' W 013°43'3 2.5
2015-Jan-24 02:33N 09°31' W 013°43'3 3.2
2015-Jan-24 01:33N 09°27' W 013°43'3 2.7
2015-Jan-24 00:33N 09°30' W 013°44'0 0.3
2015-Jan-23 23:32N 09°30' W 013°44'3 2.9
2015-Jan-23 22:33N 09°28' W 013°43'3 3.1
2015-Jan-23 21:33N 09°31' W 013°43'2 1.9
2015-Jan-23 20:33N 09°29' W 013°43'1 0.5
2015-Jan-23 19:34N 09°28' W 013°44'2 2.2
2015-Jan-23 18:33N 09°31' W 013°44'2 2.4
2015-Jan-23 17:33N 09°28' W 013°43'3 2.8
2015-Jan-23 16:33N 09°31' W 013°43'2 1.9
2015-Jan-23 15:34N 09°29' W 013°44'2 1.7
2015-Jan-23 14:33N 09°31' W 013°43'3 2.7
2015-Jan-23 13:33N 09°28' W 013°43'2 2.3
2015-Jan-23 12:33N 09°30' W 013°44'0 0.5
2015-Jan-23 11:33N 09°30' W 013°44'1 1.1
2015-Jan-23 10:34N 09°31' W 013°43'3 2.9
2015-Jan-23 09:33N 09°28' W 013°43'3 3.0
2015-Jan-23 08:33N 09°31' W 013°43'0 0.4
2015-Jan-23 07:33N 09°31' W 013°43'0 0.2
2015-Jan-23 06:33N 09°30' W 013°44'3 2.8
2015-Jan-23 05:34N 09°28' W 013°43'3 3.1
2015-Jan-23 04:33N 09°31' W 013°43'2 1.8
2015-Jan-23 03:33N 09°29' W 013°44'0 0.1
2015-Jan-23 02:33N 09°29' W 013°43'1 1.5
2015-Jan-23 01:33N 09°30' W 013°44'0 0.5
2015-Jan-23 00:33N 09°31' W 013°43'0 0.0
2015-Jan-22 23:34N 09°31' W 013°43'0 0.0
2015-Jan-22 22:31N 09°31' W 013°43'0 0.0
2015-Jan-22 21:31N 09°31' W 013°43'0 0.0
2015-Jan-22 20:31N 09°31' W 013°43'0 0.0
2015-Jan-22 19:31N 09°31' W 013°43'0 0.0
2015-Jan-22 18:31N 09°31' W 013°43'0 0.0
2015-Jan-22 17:31N 09°31' W 013°43'0 0.0
2015-Jan-22 16:31N 09°31' W 013°43'0 0.0
2015-Jan-22 15:31N 09°31' W 013°43'0 0.0
2015-Jan-22 14:31N 09°31' W 013°43'0 0.0
2015-Jan-22 13:31N 09°31' W 013°43'0 0.0
2015-Jan-22 12:31N 09°31' W 013°43'0 0.0
2015-Jan-22 11:31N 09°31' W 013°43'0 0.1
2015-Jan-22 10:34N 09°31' W 013°43'3 2.9
2015-Jan-22 09:34N 09°28' W 013°43'3 3.1
2015-Jan-22 08:33N 09°31' W 013°43'3 2.5
2015-Jan-22 07:33N 09°28' W 013°43'2 2.1
2015-Jan-22 06:33N 09°31' W 013°44'2 1.9
2015-Jan-22 05:33N 09°29' W 013°43'0 0.3
2015-Jan-22 04:33N 09°29' W 013°43'1 1.4
2015-Jan-22 03:33N 09°30' W 013°44'3 2.6
2015-Jan-22 02:33N 09°28' W 013°43'3 2.9
2015-Jan-22 01:33N 09°31' W 013°44'3 2.9
2015-Jan-22 00:33N 09°28' W 013°43'2 2.5
2015-Jan-21 23:33N 09°30' W 013°44'2 2.9
2015-Jan-21 22:50N 09°28' W 013°43'0 7.1
2015-Jan-21 22:46N 09°28' W 013°43'2 7.7
2015-Jan-21 22:33N 09°30' W 013°44'2 2.3
2015-Jan-21 21:33N 09°28' W 013°43'3 3.0
2015-Jan-21 20:33N 09°31' W 013°43'3 2.9
2015-Jan-21 19:34N 09°28' W 013°43'3 2.8
2015-Jan-21 18:33N 09°31' W 013°43'1 0.9
2015-Jan-21 17:33N 09°30' W 013°44'1 0.9
2015-Jan-21 16:33N 09°31' W 013°43'2 1.9
2015-Jan-21 15:33N 09°29' W 013°43'2 1.7
2015-Jan-21 14:33N 09°31' W 013°44'2 2.4
2015-Jan-21 13:34N 09°28' W 013°43'3 2.6
2015-Jan-21 12:33N 09°31' W 013°43'0 0.4
2015-Jan-21 11:33N 09°31' W 013°43'1 0.5
2015-Jan-21 10:34N 09°31' W 013°43'0 0.0
2015-Jan-21 09:34N 09°31' W 013°43'3 3.1
2015-Jan-21 08:33N 09°28' W 013°43'3 2.8
2015-Jan-21 07:34N 09°31' W 013°43'0 0.3
2015-Jan-21 06:33N 09°30' W 013°44'2 2.3
2015-Jan-21 05:33N 09°28' W 013°43'2 1.8
2015-Jan-21 04:33N 09°30' W 013°44'1 0.6
2015-Jan-21 03:33N 09°30' W 013°43'3 2.8
2015-Jan-21 02:33N 09°28' W 013°43'3 2.9
2015-Jan-21 01:33N 09°31' W 013°44'2 2.3
2015-Jan-21 00:33N 09°28' W 013°43'1 1.2
2015-Jan-20 23:33N 09°29' W 013°44'1 1.0
2015-Jan-20 22:33N 09°30' W 013°43'3 2.7
2015-Jan-20 21:33N 09°28' W 013°43'3 2.6
2015-Jan-20 20:33N 09°30' W 013°43'1 1.2
2015-Jan-20 19:33N 09°29' W 013°44'0 0.3
2015-Jan-20 18:34N 09°29' W 013°43'2 1.8
2015-Jan-20 17:33N 09°31' W 013°44'2 2.3
2015-Jan-20 16:33N 09°28' W 013°43'0 0.0
2015-Jan-20 15:33N 09°28' W 013°43'0 0.0
2015-Jan-20 14:34N 09°28' W 013°43'0 0.1
2015-Jan-20 13:34N 09°28' W 013°43'0 0.0
2015-Jan-20 12:34N 09°28' W 013°43'0 0.0
2015-Jan-20 11:31N 09°28' W 013°43'0 0.0
2015-Jan-20 10:34N 09°28' W 013°43'0 0.3
2015-Jan-20 09:34N 09°28' W 013°43'1 0.6
2015-Jan-20 08:34N 09°29' W 013°43'2 1.6
2015-Jan-20 07:34N 09°30' W 013°44'0 0.1
2015-Jan-20 06:33N 09°30' W 013°44'2 2.3
2015-Jan-20 05:32N 09°28' W 013°43'3 2.9
2015-Jan-20 04:34N 09°31' W 013°43'2 2.1
2015-Jan-20 03:33N 09°29' W 013°43'0 0.4
2015-Jan-20 02:32N 09°28' W 013°43'2 2.0
2015-Jan-20 01:33N 09°30' W 013°44'3 2.6
2015-Jan-20 00:33N 09°28' W 013°43'3 2.8
2015-Jan-19 23:33N 09°30' W 013°44'1 1.4
2015-Jan-19 22:33N 09°29' W 013°44'1 0.6
2015-Jan-19 21:33N 09°28' W 013°43'2 2.1
2015-Jan-19 20:33N 09°31' W 013°44'2 1.6
2015-Jan-19 19:33N 09°29' W 013°44'1 0.9
2015-Jan-19 18:33N 09°28' W 013°43'2 2.5
2015-Jan-19 17:33N 09°31' W 013°44'3 2.5
2015-Jan-19 16:33N 09°28' W 013°43'2 2.2
2015-Jan-19 15:34N 09°30' W 013°43'2 2.5
2015-Jan-19 14:33N 09°28' W 013°43'3 2.9
2015-Jan-19 13:33N 09°31' W 013°43'3 2.9
2015-Jan-19 12:33N 09°28' W 013°43'3 2.9
2015-Jan-19 11:33N 09°31' W 013°43'2 1.6
2015-Jan-19 10:33N 09°29' W 013°44'1 0.9
2015-Jan-19 09:33N 09°28' W 013°43'2 2.2
2015-Jan-19 08:33N 09°30' W 013°44'0 0.1
2015-Jan-19 07:33N 09°30' W 013°44'2 2.1
2015-Jan-19 06:34N 09°28' W 013°43'1 1.0
2015-Jan-19 05:34N 09°29' W 013°44'1 1.3
2015-Jan-19 04:34N 09°30' W 013°44'2 2.5
2015-Jan-19 03:34N 09°28' W 013°43'2 1.9
2015-Jan-19 02:33N 09°30' W 013°44'1 0.7
2015-Jan-19 01:34N 09°30' W 013°44'3 2.8
2015-Jan-19 00:33N 09°28' W 013°43'3 2.7
2015-Jan-18 23:34N 09°30' W 013°44'0 0.3
2015-Jan-18 22:33N 09°31' W 013°43'3 2.8
2015-Jan-18 21:33N 09°28' W 013°43'3 2.6
2015-Jan-18 20:34N 09°30' W 013°44'0 0.2
2015-Jan-18 19:33N 09°31' W 013°43'3 2.7
2015-Jan-18 18:34N 09°28' W 013°43'3 2.8
2015-Jan-18 17:34N 09°31' W 013°43'0 0.4
2015-Jan-18 16:33N 09°30' W 013°44'2 1.9
2015-Jan-18 15:33N 09°29' W 013°43'2 2.4
2015-Jan-18 14:33N 09°31' W 013°43'0 0.1
2015-Jan-18 13:33N 09°31' W 013°43'0 0.0
2015-Jan-18 12:33N 09°31' W 013°43'0 0.0
2015-Jan-18 11:33N 09°31' W 013°43'0 0.0
2015-Jan-18 10:33N 09°31' W 013°43'0 0.0
2015-Jan-18 09:33N 09°31' W 013°43'0 0.0
2015-Jan-18 08:32N 09°31' W 013°43'1 0.9
2015-Jan-18 07:33N 09°30' W 013°44'0 0.4
2015-Jan-18 06:33N 09°30' W 013°44'3 2.8
2015-Jan-18 05:33N 09°28' W 013°43'3 3.0
2015-Jan-18 04:33N 09°31' W 013°43'1 0.6
2015-Jan-18 03:33N 09°30' W 013°44'2 2.4
2015-Jan-18 02:33N 09°28' W 013°43'3 2.9
2015-Jan-18 01:34N 09°31' W 013°43'1 0.7
2015-Jan-18 00:33N 09°30' W 013°44'2 2.4
2015-Jan-17 23:33N 09°28' W 013°43'3 2.8
2015-Jan-17 22:33N 09°31' W 013°44'2 2.1
2015-Jan-17 21:33N 09°28' W 013°43'2 1.6
2015-Jan-17 20:33N 09°30' W 013°44'1 0.7
2015-Jan-17 19:33N 09°31' W 013°43'3 2.9
2015-Jan-17 18:34N 09°28' W 013°43'3 3.1
2015-Jan-17 17:33N 09°31' W 013°43'3 3.0
2015-Jan-17 16:34N 09°28' W 013°43'3 2.8
2015-Jan-17 15:33N 09°31' W 013°43'1 0.8
2015-Jan-17 14:33N 09°30' W 013°44'2 2.2
2015-Jan-17 13:33N 09°28' W 013°43'3 2.9
2015-Jan-17 12:33N 09°31' W 013°43'1 1.3
2015-Jan-17 11:33N 09°29' W 013°44'1 1.3
2015-Jan-17 10:33N 09°28' W 013°43'2 2.3
2015-Jan-17 09:33N 09°30' W 013°44'0 0.5
2015-Jan-17 08:33N 09°30' W 013°44'2 2.2
2015-Jan-17 07:33N 09°28' W 013°43'3 2.6
2015-Jan-17 06:34N 09°30' W 013°44'0 0.4
2015-Jan-17 05:33N 09°31' W 013°43'3 2.9
2015-Jan-17 04:33N 09°28' W 013°43'3 2.8
2015-Jan-17 03:34N 09°31' W 013°44'1 1.3
2015-Jan-17 02:34N 09°29' W 013°44'1 0.7
2015-Jan-17 01:33N 09°29' W 013°43'2 2.1
2015-Jan-17 00:34N 09°31' W 013°44'3 2.6
2015-Jan-16 23:34N 09°28' W 013°43'2 2.0
2015-Jan-16 22:34N 09°30' W 013°44'0 0.5
2015-Jan-16 21:34N 09°31' W 013°44'3 2.8
2015-Jan-16 20:33N 09°28' W 013°43'  
Track history (hours):
 
Tides and Currents Weather Stations Pressure Air Temp Water Temp Dewpoint Dewpoint Depression Visibility Wind Speed Wind Dir Waves Ship Positions

Atlantico Due

Last reported at 2015-Jan-26 20:12 UTC. Time now 2015-Apr-27 22:10 UTC.
Position N 08°35' W 013°60'.
Warning: this ship's position is months out of date.

; draft 6 m.

Type: Dredging. MMSI: 205062000.

Date/timePositionNaut miles runAvg speedWind from/ knotsBaromVisibWave heightAir tempDewpointWater temp
2015-Jan-26 20:12N 08°35' W 013°60'16 9.7
2015-Jan-26 18:32N 08°51' W 013°60'11 9.7
2015-Jan-26 17:24N 09°02' W 013°59'1010.3
2015-Jan-26 16:27N 09°11' W 013°53'9 9.6
2015-Jan-26 15:33N 09°18' W 013°49'10 9.9
2015-Jan-26 14:33N 09°27' W 013°44'4 4.4
2015-Jan-26 13:33N 09°31' W 013°43'0 0.0
2015-Jan-26 12:33N 09°31' W 013°43'0 0.0
2015-Jan-26 11:33N 09°31' W 013°43'0 0.0
2015-Jan-26 10:33N 09°31' W 013°43'0 0.0
2015-Jan-26 09:33N 09°31' W 013°43'0 0.0
2015-Jan-26 08:33N 09°31' W 013°43'0 0.0
2015-Jan-26 07:33N 09°31' W 013°43'0 0.0
2015-Jan-26 06:33N 09°31' W 013°43'0 0.0
2015-Jan-26 05:33N 09°31' W 013°43'0 0.0
2015-Jan-26 04:33N 09°31' W 013°43'0 0.0
2015-Jan-26 03:33N 09°31' W 013°43'0 0.0
2015-Jan-26 02:33N 09°31' W 013°43'0 0.0
2015-Jan-26 01:27N 09°31' W 013°43'0 0.0
2015-Jan-26 00:27N 09°31' W 013°43'0 0.0
2015-Jan-25 23:33N 09°31' W 013°43'0 0.0
2015-Jan-25 22:33N 09°31' W 013°43'0 0.0
2015-Jan-25 21:33N 09°31' W 013°43'0 0.0
2015-Jan-25 20:33N 09°31' W 013°43'0 0.0
2015-Jan-25 19:33N 09°31' W 013°43'0 0.0
2015-Jan-25 18:33N 09°31' W 013°43'0 0.0
2015-Jan-25 17:33N 09°31' W 013°43'0 0.0
2015-Jan-25 16:33N 09°31' W 013°43'0 0.0
2015-Jan-25 15:33N 09°31' W 013°43'0 0.0
2015-Jan-25 14:33N 09°31' W 013°43'0 0.0
2015-Jan-25 13:33N 09°31' W 013°43'0 0.0
2015-Jan-25 12:33N 09°31' W 013°43'0 0.0
2015-Jan-25 11:33N 09°31' W 013°43'0 0.0
2015-Jan-25 10:31N 09°31' W 013°43'0 0.0
2015-Jan-25 09:31N 09°31' W 013°43'0 0.0
2015-Jan-25 08:31N 09°31' W 013°43'0 0.0
2015-Jan-25 07:31N 09°31' W 013°43'0 0.0
2015-Jan-25 06:31N 09°31' W 013°43'0 0.0
2015-Jan-25 05:31N 09°31' W 013°43'0 0.0
2015-Jan-25 04:31N 09°31' W 013°43'0 0.0
2015-Jan-25 03:31N 09°31' W 013°43'0 0.0
2015-Jan-25 02:31N 09°31' W 013°43'0 0.0
2015-Jan-25 01:31N 09°31' W 013°43'0 0.0
2015-Jan-25 00:31N 09°31' W 013°43'0 0.0
2015-Jan-24 23:31N 09°31' W 013°43'0 0.0
2015-Jan-24 22:31N 09°31' W 013°43'0 0.0
2015-Jan-24 21:31N 09°31' W 013°43'0 0.0
2015-Jan-24 20:31N 09°31' W 013°43'0 0.0
2015-Jan-24 19:31N 09°31' W 013°43'0 0.0
2015-Jan-24 18:31N 09°31' W 013°43'0 0.0
2015-Jan-24 17:31N 09°31' W 013°43'0 0.0
2015-Jan-24 16:22N 09°31' W 013°43'0 0.0
2015-Jan-24 15:25N 09°31' W 013°43'1 1.7
2015-Jan-24 14:33N 09°29' W 013°44'1 1.0
2015-Jan-24 13:26N 09°28' W 013°43'0 0.0
2015-Jan-24 12:23N 09°28' W 013°43'0 0.4
2015-Jan-24 11:34N 09°29' W 013°43'3 2.8
2015-Jan-24 10:34N 09°31' W 013°43'2 2.3
2015-Jan-24 09:33N 09°29' W 013°44'2 1.6
2015-Jan-24 08:33N 09°28' W 013°43'3 2.7
2015-Jan-24 07:34N 09°30' W 013°44'2 2.5
2015-Jan-24 06:33N 09°28' W 013°43'3 2.8
2015-Jan-24 05:33N 09°31' W 013°43'1 1.2
2015-Jan-24 04:33N 09°30' W 013°44'1 1.5
2015-Jan-24 03:33N 09°28' W 013°43'3 2.5
2015-Jan-24 02:33N 09°31' W 013°43'3 3.2
2015-Jan-24 01:33N 09°27' W 013°43'3 2.7
2015-Jan-24 00:33N 09°30' W 013°44'0 0.3
2015-Jan-23 23:32N 09°30' W 013°44'3 2.9
2015-Jan-23 22:33N 09°28' W 013°43'3 3.1
2015-Jan-23 21:33N 09°31' W 013°43'2 1.9
2015-Jan-23 20:33N 09°29' W 013°43'1 0.5
2015-Jan-23 19:34N 09°28' W 013°44'2 2.2
2015-Jan-23 18:33N 09°31' W 013°44'2 2.4
2015-Jan-23 17:33N 09°28' W 013°43'3 2.8
2015-Jan-23 16:33N 09°31' W 013°43'2 1.9
2015-Jan-23 15:34N 09°29' W 013°44'2 1.7
2015-Jan-23 14:33N 09°31' W 013°43'3 2.7
2015-Jan-23 13:33N 09°28' W 013°43'2 2.3
2015-Jan-23 12:33N 09°30' W 013°44'0 0.5
2015-Jan-23 11:33N 09°30' W 013°44'1 1.1
2015-Jan-23 10:34N 09°31' W 013°43'3 2.9
2015-Jan-23 09:33N 09°28' W 013°43'3 3.0
2015-Jan-23 08:33N 09°31' W 013°43'0 0.4
2015-Jan-23 07:33N 09°31' W 013°43'0 0.2
2015-Jan-23 06:33N 09°30' W 013°44'3 2.8
2015-Jan-23 05:34N 09°28' W 013°43'3 3.1
2015-Jan-23 04:33N 09°31' W 013°43'2 1.8
2015-Jan-23 03:33N 09°29' W 013°44'0 0.1
2015-Jan-23 02:33N 09°29' W 013°43'1 1.5
2015-Jan-23 01:33N 09°30' W 013°44'0 0.5
2015-Jan-23 00:33N 09°31' W 013°43'0 0.0
2015-Jan-22 23:34N 09°31' W 013°43'0 0.0
2015-Jan-22 22:31N 09°31' W 013°43'0 0.0
2015-Jan-22 21:31N 09°31' W 013°43'0 0.0
2015-Jan-22 20:31N 09°31' W 013°43'0 0.0
2015-Jan-22 19:31N 09°31' W 013°43'0 0.0
2015-Jan-22 18:31N 09°31' W 013°43'0 0.0
2015-Jan-22 17:31N 09°31' W 013°43'0 0.0
2015-Jan-22 16:31N 09°31' W 013°43'0 0.0
2015-Jan-22 15:31N 09°31' W 013°43'0 0.0
2015-Jan-22 14:31N 09°31' W 013°43'0 0.0
2015-Jan-22 13:31N 09°31' W 013°43'0 0.0
2015-Jan-22 12:31N 09°31' W 013°43'0 0.0
2015-Jan-22 11:31N 09°31' W 013°43'0 0.1
2015-Jan-22 10:34N 09°31' W 013°43'3 2.9
2015-Jan-22 09:34N 09°28' W 013°43'3 3.1
2015-Jan-22 08:33N 09°31' W 013°43'3 2.5
2015-Jan-22 07:33N 09°28' W 013°43'2 2.1
2015-Jan-22 06:33N 09°31' W 013°44'2 1.9
2015-Jan-22 05:33N 09°29' W 013°43'0 0.3
2015-Jan-22 04:33N 09°29' W 013°43'1 1.4
2015-Jan-22 03:33N 09°30' W 013°44'3 2.6
2015-Jan-22 02:33N 09°28' W 013°43'3 2.9
2015-Jan-22 01:33N 09°31' W 013°44'3 2.9
2015-Jan-22 00:33N 09°28' W 013°43'2 2.5
2015-Jan-21 23:33N 09°30' W 013°44'2 2.9
2015-Jan-21 22:50N 09°28' W 013°43'0 7.1
2015-Jan-21 22:46N 09°28' W 013°43'2 7.7
2015-Jan-21 22:33N 09°30' W 013°44'2 2.3
2015-Jan-21 21:33N 09°28' W 013°43'3 3.0
2015-Jan-21 20:33N 09°31' W 013°43'3 2.9
2015-Jan-21 19:34N 09°28' W 013°43'3 2.8
2015-Jan-21 18:33N 09°31' W 013°43'1 0.9
2015-Jan-21 17:33N 09°30' W 013°44'1 0.9
2015-Jan-21 16:33N 09°31' W 013°43'2 1.9
2015-Jan-21 15:33N 09°29' W 013°43'2 1.7
2015-Jan-21 14:33N 09°31' W 013°44'2 2.4
2015-Jan-21 13:34N 09°28' W 013°43'3 2.6
2015-Jan-21 12:33N 09°31' W 013°43'0 0.4
2015-Jan-21 11:33N 09°31' W 013°43'1 0.5
2015-Jan-21 10:34N 09°31' W 013°43'0 0.0
2015-Jan-21 09:34N 09°31' W 013°43'3 3.1
2015-Jan-21 08:33N 09°28' W 013°43'3 2.8
2015-Jan-21 07:34N 09°31' W 013°43'0 0.3
2015-Jan-21 06:33N 09°30' W 013°44'2 2.3
2015-Jan-21 05:33N 09°28' W 013°43'2 1.8
2015-Jan-21 04:33N 09°30' W 013°44'1 0.6
2015-Jan-21 03:33N 09°30' W 013°43'3 2.8
2015-Jan-21 02:33N 09°28' W 013°43'3 2.9
2015-Jan-21 01:33N 09°31' W 013°44'2 2.3
2015-Jan-21 00:33N 09°28' W 013°43'1 1.2
2015-Jan-20 23:33N 09°29' W 013°44'1 1.0
2015-Jan-20 22:33N 09°30' W 013°43'3 2.7
2015-Jan-20 21:33N 09°28' W 013°43'3 2.6
2015-Jan-20 20:33N 09°30' W 013°43'1 1.2
2015-Jan-20 19:33N 09°29' W 013°44'0 0.3
2015-Jan-20 18:34N 09°29' W 013°43'2 1.8
2015-Jan-20 17:33N 09°31' W 013°44'2 2.3
2015-Jan-20 16:33N 09°28' W 013°43'0 0.0
2015-Jan-20 15:33N 09°28' W 013°43'0 0.0
2015-Jan-20 14:34N 09°28' W 013°43'0 0.1
2015-Jan-20 13:34N 09°28' W 013°43'0 0.0
2015-Jan-20 12:34N 09°28' W 013°43'0 0.0
2015-Jan-20 11:31N 09°28' W 013°43'0 0.0
2015-Jan-20 10:34N 09°28' W 013°43'0 0.3
2015-Jan-20 09:34N 09°28' W 013°43'1 0.6
2015-Jan-20 08:34N 09°29' W 013°43'2 1.6
2015-Jan-20 07:34N 09°30' W 013°44'0 0.1
2015-Jan-20 06:33N 09°30' W 013°44'2 2.3
2015-Jan-20 05:32N 09°28' W 013°43'3 2.9
2015-Jan-20 04:34N 09°31' W 013°43'2 2.1
2015-Jan-20 03:33N 09°29' W 013°43'0 0.4
2015-Jan-20 02:32N 09°28' W 013°43'2 2.0
2015-Jan-20 01:33N 09°30' W 013°44'3 2.6
2015-Jan-20 00:33N 09°28' W 013°43'3 2.8
2015-Jan-19 23:33N 09°30' W 013°44'1 1.4
2015-Jan-19 22:33N 09°29' W 013°44'1 0.6
2015-Jan-19 21:33N 09°28' W 013°43'2 2.1
2015-Jan-19 20:33N 09°31' W 013°44'2 1.6
2015-Jan-19 19:33N 09°29' W 013°44'1 0.9
2015-Jan-19 18:33N 09°28' W 013°43'2 2.5
2015-Jan-19 17:33N 09°31' W 013°44'3 2.5
2015-Jan-19 16:33N 09°28' W 013°43'2 2.2
2015-Jan-19 15:34N 09°30' W 013°43'2 2.5
2015-Jan-19 14:33N 09°28' W 013°43'3 2.9
2015-Jan-19 13:33N 09°31' W 013°43'3 2.9
2015-Jan-19 12:33N 09°28' W 013°43'3 2.9
2015-Jan-19 11:33N 09°31' W 013°43'2 1.6
2015-Jan-19 10:33N 09°29' W 013°44'1 0.9
2015-Jan-19 09:33N 09°28' W 013°43'2 2.2
2015-Jan-19 08:33N 09°30' W 013°44'0 0.1
2015-Jan-19 07:33N 09°30' W 013°44'2 2.1
2015-Jan-19 06:34N 09°28' W 013°43'1 1.0
2015-Jan-19 05:34N 09°29' W 013°44'1 1.3
2015-Jan-19 04:34N 09°30' W 013°44'2 2.5
2015-Jan-19 03:34N 09°28' W 013°43'2 1.9
2015-Jan-19 02:33N 09°30' W 013°44'1 0.7
2015-Jan-19 01:34N 09°30' W 013°44'3 2.8
2015-Jan-19 00:33N 09°28' W 013°43'3 2.7
2015-Jan-18 23:34N 09°30' W 013°44'0 0.3
2015-Jan-18 22:33N 09°31' W 013°43'3 2.8
2015-Jan-18 21:33N 09°28' W 013°43'3 2.6
2015-Jan-18 20:34N 09°30' W 013°44'0 0.2
2015-Jan-18 19:33N 09°31' W 013°43'3 2.7
2015-Jan-18 18:34N 09°28' W 013°43'3 2.8
2015-Jan-18 17:34N 09°31' W 013°43'0 0.4
2015-Jan-18 16:33N 09°30' W 013°44'2 1.9
2015-Jan-18 15:33N 09°29' W 013°43'2 2.4
2015-Jan-18 14:33N 09°31' W 013°43'0 0.1
2015-Jan-18 13:33N 09°31' W 013°43'0 0.0
2015-Jan-18 12:33N 09°31' W 013°43'0 0.0
2015-Jan-18 11:33N 09°31' W 013°43'0 0.0
2015-Jan-18 10:33N 09°31' W 013°43'0 0.0
2015-Jan-18 09:33N 09°31' W 013°43'0 0.0
2015-Jan-18 08:32N 09°31' W 013°43'1 0.9
2015-Jan-18 07:33N 09°30' W 013°44'0 0.4
2015-Jan-18 06:33N 09°30' W 013°44'3 2.8
2015-Jan-18 05:33N 09°28' W 013°43'3 3.0
2015-Jan-18 04:33N 09°31' W 013°43'1 0.6
2015-Jan-18 03:33N 09°30' W 013°44'2 2.4
2015-Jan-18 02:33N 09°28' W 013°43'3 2.9
2015-Jan-18 01:34N 09°31' W 013°43'1 0.7
2015-Jan-18 00:33N 09°30' W 013°44'2 2.4
2015-Jan-17 23:33N 09°28' W 013°43'3 2.8
2015-Jan-17 22:33N 09°31' W 013°44'2 2.1
2015-Jan-17 21:33N 09°28' W 013°43'2 1.6
2015-Jan-17 20:33N 09°30' W 013°44'1 0.7
2015-Jan-17 19:33N 09°31' W 013°43'3 2.9
2015-Jan-17 18:34N 09°28' W 013°43'3 3.1
2015-Jan-17 17:33N 09°31' W 013°43'3 3.0
2015-Jan-17 16:34N 09°28' W 013°43'3 2.8
2015-Jan-17 15:33N 09°31' W 013°43'1 0.8
2015-Jan-17 14:33N 09°30' W 013°44'2 2.2
2015-Jan-17 13:33N 09°28' W 013°43'3 2.9
2015-Jan-17 12:33N 09°31' W 013°43'1 1.3
2015-Jan-17 11:33N 09°29' W 013°44'1 1.3
2015-Jan-17 10:33N 09°28' W 013°43'2 2.3
2015-Jan-17 09:33N 09°30' W 013°44'0 0.5
2015-Jan-17 08:33N 09°30' W 013°44'2 2.2
2015-Jan-17 07:33N 09°28' W 013°43'3 2.6
2015-Jan-17 06:34N 09°30' W 013°44'0 0.4
2015-Jan-17 05:33N 09°31' W 013°43'3 2.9
2015-Jan-17 04:33N 09°28' W 013°43'3 2.8
2015-Jan-17 03:34N 09°31' W 013°44'1 1.3
2015-Jan-17 02:34N 09°29' W 013°44'1 0.7
2015-Jan-17 01:33N 09°29' W 013°43'2 2.1
2015-Jan-17 00:34N 09°31' W 013°44'3 2.6
2015-Jan-16 23:34N 09°28' W 013°43'2 2.0
2015-Jan-16 22:34N 09°30' W 013°44'0 0.5
2015-Jan-16 21:34N 09°31' W 013°44'3 2.8
2015-Jan-16 20:33N 09°28' W 013°43'  

Dump ship's entire track history